Airfield :
LOGIN :

Register | Disclaimer

   EN    FR    IT 

 










Legend :    VFR   Marginal VFR   IFR   Intensive IFR   Very Intensive IFR
Visi :
Ceiling :
>= 8 km
>= 3000ft
5 to 8 km
1000 to 3000 ft
1500m to 5 km
500 to 1000 ft
800 to 1500m
200 to 500 ft
< 800m
< 200 ft
Symbols :   Thunderstorms  Fog  Heavy snow  Heavy precipitations  Wind > 20 kt
SIGMETs :     Misc.  Thunderstorms  Icing  Turbulence  Mountain Waves  Volcanic Ashes






- Airport Elevation : 330 ft
- IATA code : LVA


LFOV - Laval-Entrammes

CURRENT METAR :
  • 211400Z AUTO 01014KT 330V050 CAVOK 12/01 Q1025

EXPIRED METARs :
  • 211330Z AUTO 01014KT 330V030 CAVOK 11/00 Q1025
  • 211300Z AUTO 35015KT 9999 BKN046 BKN054 12/02 Q1026
  • 211230Z AUTO 01014KT 330V040 9999 BKN044 BKN050 11/01 Q1025
  • 211200Z AUTO 01017KT 340V040 9999 BKN042 BKN049 11/01 Q1026
  • 211130Z AUTO 03015KT 350V060 9999 SCT038 BKN048 11/03 Q1026
  • 211100Z AUTO 01013KT 9999 FEW030 BKN044 BKN052 10/03 Q1026
  • 211030Z AUTO 02013KT 9999 SCT030 BKN040 OVC049 10/04 Q1026
  • 211000Z AUTO 02009KT 9999 BKN028 BKN035 OVC045 09/04 Q1026
  • 210930Z AUTO 01008KT 350V050 9999 BKN024 BKN054 09/04 Q1026

TAF N/A



MET'MAP, your aeronautical weather chart ! - Copyright ORBIFLY December 2007 - Disclaimer

ORBIFLY MET'MAP TEAM :

Programming & Development : Alexandra Zaïnal
Original concept : Baudouin d'Aumeries
Technical & hardware support : Manuel Goepfert
Assistance : Marc-Olivier Méhu




SOURCES & CREDITS :

   NOAA